sensor_id;sensor_type;location;lat;lon;timestamp;pressure;altitude;pressure_sealevel;temperature;humidity
74708;BME280;63360;50.104;8.074;2022-11-12T00:00:54;98778.28;;;1.82;100.00
74708;BME280;63360;50.104;8.074;2022-11-12T00:03:20;98757.19;;;1.80;100.00
74708;BME280;63360;50.104;8.074;2022-11-12T00:05:47;98760.47;;;1.87;100.00
74708;BME280;63360;50.104;8.074;2022-11-12T00:08:16;98757.75;;;1.82;100.00
74708;BME280;63360;50.104;8.074;2022-11-12T00:10:43;98768.78;;;1.82;100.00
74708;BME280;63360;50.104;8.074;2022-11-12T00:13:09;98763.50;;;1.77;100.00
74708;BME280;63360;50.104;8.074;2022-11-12T00:15:35;98759.06;;;1.66;100.00
74708;BME280;63360;50.104;8.074;2022-11-12T00:18:02;98758.16;;;1.79;100.00
74708;BME280;63360;50.104;8.074;2022-11-12T00:20:28;98768.00;;;1.82;100.00
74708;BME280;63360;50.104;8.074;2022-11-12T00:22:55;98754.22;;;1.76;100.00
74708;BME280;63360;50.104;8.074;2022-11-12T00:25:21;98764.63;;;1.88;100.00
74708;BME280;63360;50.104;8.074;2022-11-12T00:27:48;98764.88;;;1.80;100.00
74708;BME280;63360;50.104;8.074;2022-11-12T00:30:14;98762.94;;;1.75;100.00
74708;BME280;63360;50.104;8.074;2022-11-12T00:32:41;98765.97;;;1.91;100.00
74708;BME280;63360;50.104;8.074;2022-11-12T00:35:07;98762.03;;;1.88;100.00
74708;BME280;63360;50.104;8.074;2022-11-12T00:37:39;98782.94;;;1.92;100.00
74708;BME280;63360;50.104;8.074;2022-11-12T00:40:06;98782.97;;;1.85;100.00
74708;BME280;63360;50.104;8.074;2022-11-12T00:42:33;98780.00;;;1.88;100.00
74708;BME280;63360;50.104;8.074;2022-11-12T00:44:59;98765.75;;;1.67;100.00
74708;BME280;63360;50.104;8.074;2022-11-12T00:47:25;98772.84;;;1.65;100.00
74708;BME280;63360;50.104;8.074;2022-11-12T00:49:52;98785.66;;;1.72;100.00
74708;BME280;63360;50.104;8.074;2022-11-12T00:52:18;98779.78;;;1.65;100.00
74708;BME280;63360;50.104;8.074;2022-11-12T00:54:44;98779.94;;;1.70;100.00
74708;BME280;63360;50.104;8.074;2022-11-12T00:57:11;98768.94;;;1.63;100.00
74708;BME280;63360;50.104;8.074;2022-11-12T00:59:37;98774.03;;;1.69;100.00
74708;BME280;63360;50.104;8.074;2022-11-12T01:02:03;98768.53;;;1.66;100.00
74708;BME280;63360;50.104;8.074;2022-11-12T01:04:30;98778.78;;;1.66;100.00
74708;BME280;63360;50.104;8.074;2022-11-12T01:06:56;98783.13;;;1.65;100.00
74708;BME280;63360;50.104;8.074;2022-11-12T01:09:23;98770.53;;;1.57;100.00
74708;BME280;63360;50.104;8.074;2022-11-12T01:11:49;98767.03;;;1.52;100.00
74708;BME280;63360;50.104;8.074;2022-11-12T01:14:16;98779.59;;;1.60;100.00
74708;BME280;63360;50.104;8.074;2022-11-12T01:16:42;98776.03;;;1.67;100.00
74708;BME280;63360;50.104;8.074;2022-11-12T01:19:10;98773.66;;;1.66;100.00
74708;BME280;63360;50.104;8.074;2022-11-12T01:21:40;98774.06;;;1.63;100.00
74708;BME280;63360;50.104;8.074;2022-11-12T01:24:08;98773.50;;;1.61;100.00
74708;BME280;63360;50.104;8.074;2022-11-12T01:26:35;98775.41;;;1.65;100.00
74708;BME280;63360;50.104;8.074;2022-11-12T01:29:01;98761.63;;;1.66;100.00
74708;BME280;63360;50.104;8.074;2022-11-12T01:31:30;98768.53;;;1.66;100.00
74708;BME280;63360;50.104;8.074;2022-11-12T01:33:59;98771.06;;;1.72;100.00
74708;BME280;63360;50.104;8.074;2022-11-12T01:36:27;98766.72;;;1.73;100.00
74708;BME280;63360;50.104;8.074;2022-11-12T01:38:55;98770.09;;;1.67;100.00
74708;BME280;63360;50.104;8.074;2022-11-12T01:41:25;98764.22;;;1.60;100.00
74708;BME280;63360;50.104;8.074;2022-11-12T01:49:20;98760.88;;;1.59;100.00
74708;BME280;63360;50.104;8.074;2022-11-12T01:51:50;98760.50;;;1.56;100.00
74708;BME280;63360;50.104;8.074;2022-11-12T01:54:20;98757.97;;;1.49;100.00
74708;BME280;63360;50.104;8.074;2022-11-12T01:56:48;98749.53;;;1.42;100.00
74708;BME280;63360;50.104;8.074;2022-11-12T01:59:27;98754.69;;;1.42;100.00
74708;BME280;63360;50.104;8.074;2022-11-12T02:01:54;98754.34;;;1.63;100.00
74708;BME280;63360;50.104;8.074;2022-11-12T02:04:22;98753.53;;;1.63;100.00
74708;BME280;63360;50.104;8.074;2022-11-12T02:06:51;98759.47;;;1.63;100.00
74708;BME280;63360;50.104;8.074;2022-11-12T02:09:18;98754.75;;;1.60;100.00
74708;BME280;63360;50.104;8.074;2022-11-12T02:11:45;98744.44;;;1.67;100.00
74708;BME280;63360;50.104;8.074;2022-11-12T02:14:11;98759.31;;;1.83;100.00
74708;BME280;63360;50.104;8.074;2022-11-12T02:16:40;98743.97;;;1.76;100.00
74708;BME280;63360;50.104;8.074;2022-11-12T02:19:11;98728.66;;;1.70;100.00
74708;BME280;63360;50.104;8.074;2022-11-12T02:21:38;98736.13;;;1.71;100.00
74708;BME280;63360;50.104;8.074;2022-11-12T02:26:34;98754.44;;;1.75;100.00
74708;BME280;63360;50.104;8.074;2022-11-12T02:29:02;98748.94;;;1.96;100.00
74708;BME280;63360;50.104;8.074;2022-11-12T02:31:29;98738.63;;;2.03;100.00
74708;BME280;63360;50.104;8.074;2022-11-12T02:33:55;98739.53;;;1.90;100.00
74708;BME280;63360;50.104;8.074;2022-11-12T02:36:22;98732.63;;;1.91;100.00
74708;BME280;63360;50.104;8.074;2022-11-12T02:38:49;98739.25;;;1.98;100.00
74708;BME280;63360;50.104;8.074;2022-11-12T02:41:15;98726.00;;;2.01;100.00
74708;BME280;63360;50.104;8.074;2022-11-12T02:43:42;98734.13;;;1.98;100.00
74708;BME280;63360;50.104;8.074;2022-11-12T02:46:09;98726.84;;;1.95;100.00
74708;BME280;63360;50.104;8.074;2022-11-12T02:48:35;98725.72;;;2.09;100.00
74708;BME280;63360;50.104;8.074;2022-11-12T02:51:02;98715.03;;;2.12;100.00
74708;BME280;63360;50.104;8.074;2022-11-12T02:53:28;98716.03;;;2.11;100.00
74708;BME280;63360;50.104;8.074;2022-11-12T02:55:55;98718.47;;;2.24;100.00
74708;BME280;63360;50.104;8.074;2022-11-12T02:58:21;98729.03;;;2.34;100.00
74708;BME280;63360;50.104;8.074;2022-11-12T03:00:48;98720.31;;;2.54;100.00
74708;BME280;63360;50.104;8.074;2022-11-12T03:03:16;98701.41;;;2.48;100.00
74708;BME280;63360;50.104;8.074;2022-11-12T03:05:44;98717.41;;;2.50;100.00
74708;BME280;63360;50.104;8.074;2022-11-12T03:08:11;98707.63;;;2.40;100.00
74708;BME280;63360;50.104;8.074;2022-11-12T03:10:38;98704.78;;;2.49;100.00
74708;BME280;63360;50.104;8.074;2022-11-12T03:13:05;98716.78;;;2.55;100.00
74708;BME280;63360;50.104;8.074;2022-11-12T03:15:31;98706.13;;;2.51;100.00
74708;BME280;63360;50.104;8.074;2022-11-12T03:17:58;98717.41;;;2.68;100.00
74708;BME280;63360;50.104;8.074;2022-11-12T03:20:25;98714.75;;;2.75;100.00
74708;BME280;63360;50.104;8.074;2022-11-12T03:22:55;98720.88;;;3.03;100.00
74708;BME280;63360;50.104;8.074;2022-11-12T03:25:23;98712.66;;;3.13;100.00
74708;BME280;63360;50.104;8.074;2022-11-12T03:27:58;98712.13;;;3.23;100.00
74708;BME280;63360;50.104;8.074;2022-11-12T03:30:27;98712.38;;;3.33;100.00
74708;BME280;63360;50.104;8.074;2022-11-12T03:32:54;98720.78;;;3.51;100.00
74708;BME280;63360;50.104;8.074;2022-11-12T03:35:20;98706.97;;;3.64;100.00
74708;BME280;63360;50.104;8.074;2022-11-12T03:37:47;98712.91;;;3.64;100.00
74708;BME280;63360;50.104;8.074;2022-11-12T03:40:13;98713.03;;;3.93;100.00
74708;BME280;63360;50.104;8.074;2022-11-12T03:42:47;98717.03;;;3.89;100.00
74708;BME280;63360;50.104;8.074;2022-11-12T03:45:15;98705.72;;;3.78;100.00
74708;BME280;63360;50.104;8.074;2022-11-12T03:47:46;98708.78;;;3.98;100.00
74708;BME280;63360;50.104;8.074;2022-11-12T03:50:14;98705.97;;;4.00;100.00
74708;BME280;63360;50.104;8.074;2022-11-12T03:52:44;98697.91;;;4.08;100.00
74708;BME280;63360;50.104;8.074;2022-11-12T03:55:13;98698.44;;;4.10;100.00
74708;BME280;63360;50.104;8.074;2022-11-12T03:57:39;98682.25;;;3.98;100.00
74708;BME280;63360;50.104;8.074;2022-11-12T04:00:07;98690.41;;;3.95;100.00
74708;BME280;63360;50.104;8.074;2022-11-12T04:02:34;98685.34;;;3.65;100.00
74708;BME280;63360;50.104;8.074;2022-11-12T04:05:01;98686.25;;;3.47;100.00
74708;BME280;63360;50.104;8.074;2022-11-12T04:07:55;98699.06;;;3.24;100.00
74708;BME280;63360;50.104;8.074;2022-11-12T04:10:41;98690.28;;;3.02;100.00
74708;BME280;63360;50.104;8.074;2022-11-12T04:13:07;98698.53;;;2.92;100.00
74708;BME280;63360;50.104;8.074;2022-11-12T04:16:06;98704.03;;;2.78;100.00
74708;BME280;63360;50.104;8.074;2022-11-12T04:18:54;98713.06;;;2.69;100.00
74708;BME280;63360;50.104;8.074;2022-11-12T04:21:44;98692.31;;;2.52;100.00
74708;BME280;63360;50.104;8.074;2022-11-12T04:24:25;98710.84;;;2.54;100.00
74708;BME280;63360;50.104;8.074;2022-11-12T04:27:15;98703.72;;;2.38;100.00
74708;BME280;63360;50.104;8.074;2022-11-12T04:29:43;98709.28;;;2.35;100.00
74708;BME280;63360;50.104;8.074;2022-11-12T04:32:30;98711.19;;;2.21;100.00
74708;BME280;63360;50.104;8.074;2022-11-12T04:34:57;98697.09;;;2.12;100.00
74708;BME280;63360;50.104;8.074;2022-11-12T04:37:26;98704.63;;;2.07;100.00
74708;BME280;63360;50.104;8.074;2022-11-12T04:39:53;98717.31;;;2.02;100.00
74708;BME280;63360;50.104;8.074;2022-11-12T04:42:19;98713.06;;;1.90;100.00
74708;BME280;63360;50.104;8.074;2022-11-12T04:45:07;98707.78;;;1.84;100.00
74708;BME280;63360;50.104;8.074;2022-11-12T04:47:39;98708.00;;;1.83;100.00
74708;BME280;63360;50.104;8.074;2022-11-12T04:50:12;98708.59;;;1.85;100.00
74708;BME280;63360;50.104;8.074;2022-11-12T04:52:39;98712.28;;;1.89;100.00
74708;BME280;63360;50.104;8.074;2022-11-12T04:55:06;98701.09;;;1.83;100.00
74708;BME280;63360;50.104;8.074;2022-11-12T04:57:33;98706.84;;;1.79;100.00
74708;BME280;63360;50.104;8.074;2022-11-12T04:59:59;98723.25;;;1.78;100.00
74708;BME280;63360;50.104;8.074;2022-11-12T05:02:26;98712.66;;;1.68;100.00
74708;BME280;63360;50.104;8.074;2022-11-12T05:04:52;98708.53;;;1.67;100.00
74708;BME280;63360;50.104;8.074;2022-11-12T05:07:18;98726.84;;;1.70;100.00
74708;BME280;63360;50.104;8.074;2022-11-12T05:09:45;98712.16;;;1.59;100.00
74708;BME280;63360;50.104;8.074;2022-11-12T05:12:11;98720.84;;;1.58;100.00
74708;BME280;63360;50.104;8.074;2022-11-12T05:14:38;98721.41;;;1.60;100.00
74708;BME280;63360;50.104;8.074;2022-11-12T05:17:04;98706.88;;;1.54;100.00
74708;BME280;63360;50.104;8.074;2022-11-12T05:19:31;98711.78;;;1.56;100.00
74708;BME280;63360;50.104;8.074;2022-11-12T05:21:58;98714.34;;;1.56;100.00
74708;BME280;63360;50.104;8.074;2022-11-12T05:24:36;98727.19;;;1.80;100.00
74708;BME280;63360;50.104;8.074;2022-11-12T05:27:26;98711.31;;;1.90;100.00
74708;BME280;63360;50.104;8.074;2022-11-12T05:29:53;98715.94;;;2.00;100.00
74708;BME280;63360;50.104;8.074;2022-11-12T05:32:19;98724.22;;;2.02;100.00
74708;BME280;63360;50.104;8.074;2022-11-12T05:34:46;98722.22;;;2.04;100.00
74708;BME280;63360;50.104;8.074;2022-11-12T05:37:13;98709.69;;;2.14;100.00
74708;BME280;63360;50.104;8.074;2022-11-12T05:39:40;98700.63;;;2.29;100.00
74708;BME280;63360;50.104;8.074;2022-11-12T05:42:06;98714.97;;;2.37;100.00
74708;BME280;63360;50.104;8.074;2022-11-12T05:44:40;98717.84;;;2.47;100.00
74708;BME280;63360;50.104;8.074;2022-11-12T05:47:07;98715.97;;;2.72;100.00
74708;BME280;63360;50.104;8.074;2022-11-12T05:49:33;98709.72;;;2.80;100.00
74708;BME280;63360;50.104;8.074;2022-11-12T05:51:59;98719.63;;;2.94;100.00
74708;BME280;63360;50.104;8.074;2022-11-12T05:54:26;98724.97;;;3.11;100.00
74708;BME280;63360;50.104;8.074;2022-11-12T05:56:52;98714.13;;;3.21;100.00
74708;BME280;63360;50.104;8.074;2022-11-12T05:59:19;98706.59;;;3.37;100.00
74708;BME280;63360;50.104;8.074;2022-11-12T06:01:45;98708.38;;;3.37;100.00
74708;BME280;63360;50.104;8.074;2022-11-12T06:04:15;98715.66;;;3.40;100.00
74708;BME280;63360;50.104;8.074;2022-11-12T06:06:42;98709.84;;;3.44;100.00
74708;BME280;63360;50.104;8.074;2022-11-12T06:09:09;98721.50;;;3.58;100.00
74708;BME280;63360;50.104;8.074;2022-11-12T06:11:36;98718.38;;;3.56;100.00
74708;BME280;63360;50.104;8.074;2022-11-12T06:14:04;98718.69;;;3.60;100.00
74708;BME280;63360;50.104;8.074;2022-11-12T06:16:30;98711.41;;;3.57;100.00
74708;BME280;63360;50.104;8.074;2022-11-12T06:18:57;98707.63;;;3.59;100.00
74708;BME280;63360;50.104;8.074;2022-11-12T06:21:23;98719.47;;;3.60;100.00
74708;BME280;63360;50.104;8.074;2022-11-12T06:23:57;98734.03;;;3.66;100.00
74708;BME280;63360;50.104;8.074;2022-11-12T06:26:26;98721.97;;;3.67;100.00
74708;BME280;63360;50.104;8.074;2022-11-12T06:28:52;98728.47;;;3.70;100.00
74708;BME280;63360;50.104;8.074;2022-11-12T06:31:20;98721.63;;;3.63;100.00
74708;BME280;63360;50.104;8.074;2022-11-12T06:33:47;98748.47;;;3.79;100.00
74708;BME280;63360;50.104;8.074;2022-11-12T06:36:16;98732.50;;;3.77;100.00
74708;BME280;63360;50.104;8.074;2022-11-12T06:38:43;98740.31;;;3.82;100.00
74708;BME280;63360;50.104;8.074;2022-11-12T06:41:11;98735.19;;;3.82;100.00
74708;BME280;63360;50.104;8.074;2022-11-12T06:43:38;98733.81;;;3.91;100.00
74708;BME280;63360;50.104;8.074;2022-11-12T06:46:09;98746.94;;;4.01;100.00
74708;BME280;63360;50.104;8.074;2022-11-12T06:48:36;98740.22;;;4.12;100.00
74708;BME280;63360;50.104;8.074;2022-11-12T06:51:17;98735.88;;;4.12;100.00
74708;BME280;63360;50.104;8.074;2022-11-12T06:53:44;98727.91;;;4.02;100.00
74708;BME280;63360;50.104;8.074;2022-11-12T06:56:11;98720.97;;;4.03;100.00
74708;BME280;63360;50.104;8.074;2022-11-12T06:58:38;98731.72;;;4.11;100.00
74708;BME280;63360;50.104;8.074;2022-11-12T07:01:15;98738.22;;;4.14;100.00
74708;BME280;63360;50.104;8.074;2022-11-12T07:03:43;98733.50;;;4.22;100.00
74708;BME280;63360;50.104;8.074;2022-11-12T07:06:12;98732.72;;;4.22;100.00
74708;BME280;63360;50.104;8.074;2022-11-12T07:08:40;98736.19;;;4.27;100.00
74708;BME280;63360;50.104;8.074;2022-11-12T07:11:07;98732.59;;;4.28;100.00
74708;BME280;63360;50.104;8.074;2022-11-12T07:13:35;98741.69;;;4.31;100.00
74708;BME280;63360;50.104;8.074;2022-11-12T07:16:03;98742.22;;;4.33;100.00
74708;BME280;63360;50.104;8.074;2022-11-12T07:18:30;98738.06;;;4.32;100.00
74708;BME280;63360;50.104;8.074;2022-11-12T07:21:18;98742.22;;;4.33;100.00
74708;BME280;63360;50.104;8.074;2022-11-12T07:23:46;98748.69;;;4.47;100.00
74708;BME280;63360;50.104;8.074;2022-11-12T07:26:13;98748.38;;;4.44;100.00
74708;BME280;63360;50.104;8.074;2022-11-12T07:28:40;98739.88;;;4.32;100.00
74708;BME280;63360;50.104;8.074;2022-11-12T07:31:09;98739.75;;;4.26;100.00
74708;BME280;63360;50.104;8.074;2022-11-12T07:33:37;98744.34;;;4.24;100.00
74708;BME280;63360;50.104;8.074;2022-11-12T07:36:05;98746.69;;;4.26;100.00
74708;BME280;63360;50.104;8.074;2022-11-12T07:38:34;98738.06;;;4.20;100.00
74708;BME280;63360;50.104;8.074;2022-11-12T07:41:03;98738.66;;;4.22;100.00
74708;BME280;63360;50.104;8.074;2022-11-12T07:43:32;98739.75;;;4.26;100.00
74708;BME280;63360;50.104;8.074;2022-11-12T07:46:01;98744.22;;;4.43;100.00
74708;BME280;63360;50.104;8.074;2022-11-12T07:48:35;98752.41;;;4.51;100.00
74708;BME280;63360;50.104;8.074;2022-11-12T07:51:04;98747.25;;;4.40;100.00
74708;BME280;63360;50.104;8.074;2022-11-12T07:53:31;98750.94;;;4.44;100.00
74708;BME280;63360;50.104;8.074;2022-11-12T07:55:59;98759.22;;;4.46;100.00
74708;BME280;63360;50.104;8.074;2022-11-12T07:58:29;98756.56;;;4.41;100.00
74708;BME280;63360;50.104;8.074;2022-11-12T08:00:56;98762.78;;;4.68;100.00
74708;BME280;63360;50.104;8.074;2022-11-12T08:03:22;98760.97;;;4.80;100.00
74708;BME280;63360;50.104;8.074;2022-11-12T08:05:49;98755.06;;;5.24;100.00
74708;BME280;63360;50.104;8.074;2022-11-12T08:08:15;98745.66;;;5.46;100.00
74708;BME280;63360;50.104;8.074;2022-11-12T08:10:42;98745.84;;;5.73;100.00
74708;BME280;63360;50.104;8.074;2022-11-12T08:13:08;98751.63;;;5.80;100.00
74708;BME280;63360;50.104;8.074;2022-11-12T08:15:34;98761.69;;;5.93;100.00
74708;BME280;63360;50.104;8.074;2022-11-12T08:18:01;98752.84;;;5.89;100.00
74708;BME280;63360;50.104;8.074;2022-11-12T08:20:27;98760.97;;;6.15;100.00
74708;BME280;63360;50.104;8.074;2022-11-12T08:22:58;98747.81;;;6.16;100.00
74708;BME280;63360;50.104;8.074;2022-11-12T08:25:25;98754.16;;;6.25;100.00
74708;BME280;63360;50.104;8.074;2022-11-12T08:27:55;98747.22;;;6.31;100.00
74708;BME280;63360;50.104;8.074;2022-11-12T08:30:21;98739.06;;;6.39;100.00
74708;BME280;63360;50.104;8.074;2022-11-12T08:32:58;98759.47;;;6.57;100.00
74708;BME280;63360;50.104;8.074;2022-11-12T08:35:26;98759.13;;;6.70;100.00
74708;BME280;63360;50.104;8.074;2022-11-12T08:38:00;98755.31;;;6.56;100.00
74708;BME280;63360;50.104;8.074;2022-11-12T08:40:28;98751.44;;;6.37;100.00
74708;BME280;63360;50.104;8.074;2022-11-12T08:43:03;98747.72;;;6.28;100.00
74708;BME280;63360;50.104;8.074;2022-11-12T08:45:38;98746.22;;;6.15;100.00
74708;BME280;63360;50.104;8.074;2022-11-12T08:48:07;98743.28;;;6.06;100.00
74708;BME280;63360;50.104;8.074;2022-11-12T08:50:34;98757.53;;;5.92;100.00
74708;BME280;63360;50.104;8.074;2022-11-12T08:53:03;98763.25;;;5.94;100.00
74708;BME280;63360;50.104;8.074;2022-11-12T08:55:31;98754.19;;;5.80;100.00
74708;BME280;63360;50.104;8.074;2022-11-12T08:57:59;98763.16;;;5.89;100.00
74708;BME280;63360;50.104;8.074;2022-11-12T09:00:28;98753.53;;;5.85;100.00
74708;BME280;63360;50.104;8.074;2022-11-12T09:02:55;98750.13;;;5.68;100.00
74708;BME280;63360;50.104;8.074;2022-11-12T09:05:21;98757.66;;;5.69;100.00
74708;BME280;63360;50.104;8.074;2022-11-12T09:07:55;98759.91;;;5.66;100.00
74708;BME280;63360;50.104;8.074;2022-11-12T09:10:22;98759.47;;;5.69;100.00
74708;BME280;63360;50.104;8.074;2022-11-12T09:12:52;98758.34;;;5.65;100.00
74708;BME280;63360;50.104;8.074;2022-11-12T09:15:19;98744.34;;;5.61;100.00
74708;BME280;63360;50.104;8.074;2022-11-12T09:18:06;98755.31;;;5.68;100.00
74708;BME280;63360;50.104;8.074;2022-11-12T09:20:33;98758.41;;;5.70;100.00
74708;BME280;63360;50.104;8.074;2022-11-12T09:23:01;98745.44;;;5.65;100.00
74708;BME280;63360;50.104;8.074;2022-11-12T09:25:28;98756.72;;;5.75;100.00
74708;BME280;63360;50.104;8.074;2022-11-12T09:27:55;98751.88;;;5.79;100.00
74708;BME280;63360;50.104;8.074;2022-11-12T09:30:21;98750.50;;;5.88;100.00
74708;BME280;63360;50.104;8.074;2022-11-12T09:32:48;98760.88;;;6.09;100.00
74708;BME280;63360;50.104;8.074;2022-11-12T09:35:14;98753.75;;;6.17;100.00
74708;BME280;63360;50.104;8.074;2022-11-12T09:37:41;98754.34;;;6.24;100.00
74708;BME280;63360;50.104;8.074;2022-11-12T09:40:15;98740.56;;;6.35;100.00
74708;BME280;63360;50.104;8.074;2022-11-12T09:42:45;98746.41;;;6.47;100.00
74708;BME280;63360;50.104;8.074;2022-11-12T09:45:42;98746.34;;;6.63;100.00
74708;BME280;63360;50.104;8.074;2022-11-12T09:48:31;98728.44;;;6.57;100.00
74708;BME280;63360;50.104;8.074;2022-11-12T09:51:04;98739.97;;;6.71;100.00
74708;BME280;63360;50.104;8.074;2022-11-12T09:56:11;98738.91;;;6.89;100.00
74708;BME280;63360;50.104;8.074;2022-11-12T09:58:38;98741.09;;;7.02;100.00
74708;BME280;63360;50.104;8.074;2022-11-12T10:03:53;98753.25;;;7.01;100.00
74708;BME280;63360;50.104;8.074;2022-11-12T10:06:28;98754.88;;;7.07;100.00
74708;BME280;63360;50.104;8.074;2022-11-12T10:09:11;98751.19;;;7.03;100.00
74708;BME280;63360;50.104;8.074;2022-11-12T10:11:50;98745.53;;;7.06;100.00
74708;BME280;63360;50.104;8.074;2022-11-12T10:18:06;98749.53;;;7.19;100.00
74708;BME280;63360;50.104;8.074;2022-11-12T10:20:47;98744.31;;;7.14;100.00
74708;BME280;63360;50.104;8.074;2022-11-12T10:23:21;98744.94;;;7.21;100.00
74708;BME280;63360;50.104;8.074;2022-11-12T10:25:51;98747.09;;;7.29;100.00
74708;BME280;63360;50.104;8.074;2022-11-12T10:28:33;98741.56;;;7.20;100.00
74708;BME280;63360;50.104;8.074;2022-11-12T10:31:13;98725.63;;;7.07;100.00
74708;BME280;63360;50.104;8.074;2022-11-12T10:33:39;98738.31;;;7.08;100.00
74708;BME280;63360;50.104;8.074;2022-11-12T10:36:28;98728.28;;;7.12;100.00
74708;BME280;63360;50.104;8.074;2022-11-12T10:38:56;98732.91;;;7.10;100.00
74708;BME280;63360;50.104;8.074;2022-11-12T10:41:28;98740.50;;;7.21;100.00
74708;BME280;63360;50.104;8.074;2022-11-12T10:44:01;98731.22;;;7.20;100.00
74708;BME280;63360;50.104;8.074;2022-11-12T10:46:34;98734.91;;;7.29;100.00
74708;BME280;63360;50.104;8.074;2022-11-12T10:49:04;98719.38;;;7.29;100.00
74708;BME280;63360;50.104;8.074;2022-11-12T10:51:34;98735.25;;;7.38;100.00
74708;BME280;63360;50.104;8.074;2022-11-12T10:56:53;98721.91;;;7.51;100.00
74708;BME280;63360;50.104;8.074;2022-11-12T10:59:24;98724.03;;;7.59;100.00
74708;BME280;63360;50.104;8.074;2022-11-12T11:01:58;98721.50;;;7.69;100.00
74708;BME280;63360;50.104;8.074;2022-11-12T11:04:34;98710.88;;;7.66;100.00
74708;BME280;63360;50.104;8.074;2022-11-12T11:07:20;98721.56;;;7.74;100.00
74708;BME280;63360;50.104;8.074;2022-11-12T11:09:55;98707.59;;;7.75;100.00
74708;BME280;63360;50.104;8.074;2022-11-12T11:12:24;98707.63;;;7.80;100.00
74708;BME280;63360;50.104;8.074;2022-11-12T11:17:43;98697.84;;;7.87;100.00
74708;BME280;63360;50.104;8.074;2022-11-12T11:20:25;98697.09;;;7.97;100.00
74708;BME280;63360;50.104;8.074;2022-11-12T11:23:19;98700.25;;;8.04;100.00
74708;BME280;63360;50.104;8.074;2022-11-12T11:25:50;98697.22;;;8.17;100.00
74708;BME280;63360;50.104;8.074;2022-11-12T11:28:32;98702.38;;;8.12;100.00
74708;BME280;63360;50.104;8.074;2022-11-12T11:31:09;98687.88;;;8.11;100.00
74708;BME280;63360;50.104;8.074;2022-11-12T11:42:06;98686.22;;;8.42;100.00
74708;BME280;63360;50.104;8.074;2022-11-12T11:47:52;98661.06;;;8.42;100.00
74708;BME280;63360;50.104;8.074;2022-11-12T11:50:38;98666.56;;;8.51;100.00
74708;BME280;63360;50.104;8.074;2022-11-12T11:53:20;98675.13;;;8.57;100.00
74708;BME280;63360;50.104;8.074;2022-11-12T11:56:13;98681.38;;;8.66;100.00
74708;BME280;63360;50.104;8.074;2022-11-12T12:01:38;98689.16;;;8.66;100.00
74708;BME280;63360;50.104;8.074;2022-11-12T12:04:46;98680.03;;;8.53;100.00
74708;BME280;63360;50.104;8.074;2022-11-12T12:13:24;98688.28;;;8.35;100.00
74708;BME280;63360;50.104;8.074;2022-11-12T12:16:18;98681.00;;;8.32;100.00
74708;BME280;63360;50.104;8.074;2022-11-12T12:21:49;98669.09;;;8.41;100.00
74708;BME280;63360;50.104;8.074;2022-11-12T12:24:24;98674.03;;;8.37;100.00
74708;BME280;63360;50.104;8.074;2022-11-12T12:27:07;98678.13;;;8.28;100.00
74708;BME280;63360;50.104;8.074;2022-11-12T12:29:43;98667.50;;;8.30;100.00
74708;BME280;63360;50.104;8.074;2022-11-12T12:34:55;98674.53;;;8.39;100.00
74708;BME280;63360;50.104;8.074;2022-11-12T12:37:50;98666.72;;;8.29;100.00
74708;BME280;63360;50.104;8.074;2022-11-12T12:40:21;98663.88;;;8.36;100.00
74708;BME280;63360;50.104;8.074;2022-11-12T12:42:55;98667.19;;;8.21;100.00
74708;BME280;63360;50.104;8.074;2022-11-12T12:45:41;98650.28;;;8.09;100.00
74708;BME280;63360;50.104;8.074;2022-11-12T12:48:33;98647.16;;;8.12;100.00
74708;BME280;63360;50.104;8.074;2022-11-12T12:51:00;98648.72;;;8.08;100.00
74708;BME280;63360;50.104;8.074;2022-11-12T12:55:54;98653.41;;;8.11;100.00
74708;BME280;63360;50.104;8.074;2022-11-12T12:58:27;98649.25;;;8.15;100.00
74708;BME280;63360;50.104;8.074;2022-11-12T13:00:58;98646.41;;;8.16;100.00
74708;BME280;63360;50.104;8.074;2022-11-12T13:09:00;98624.38;;;8.09;100.00
74708;BME280;63360;50.104;8.074;2022-11-12T13:32:40;98616.72;;;8.39;100.00
74708;BME280;63360;50.104;8.074;2022-11-12T13:35:30;98634.34;;;8.42;100.00
74708;BME280;63360;50.104;8.074;2022-11-12T13:45:54;98606.84;;;8.31;100.00
74708;BME280;63360;50.104;8.074;2022-11-12T13:48:31;98611.19;;;8.25;100.00
74708;BME280;63360;50.104;8.074;2022-11-12T13:51:13;98617.16;;;8.26;100.00
74708;BME280;63360;50.104;8.074;2022-11-12T13:53:41;98616.69;;;8.29;100.00
74708;BME280;63360;50.104;8.074;2022-11-12T13:56:10;98619.53;;;8.27;100.00
74708;BME280;63360;50.104;8.074;2022-11-12T13:58:37;98612.47;;;8.23;100.00
74708;BME280;63360;50.104;8.074;2022-11-12T14:01:07;98607.53;;;8.16;100.00
74708;BME280;63360;50.104;8.074;2022-11-12T14:03:44;98610.38;;;8.15;100.00
74708;BME280;63360;50.104;8.074;2022-11-12T14:08:51;98609.63;;;8.19;100.00
74708;BME280;63360;50.104;8.074;2022-11-12T14:24:33;98606.47;;;8.12;100.00
74708;BME280;63360;50.104;8.074;2022-11-12T14:27:00;98608.28;;;8.12;100.00
74708;BME280;63360;50.104;8.074;2022-11-12T14:29:26;98599.00;;;8.16;100.00
74708;BME280;63360;50.104;8.074;2022-11-12T14:32:01;98588.31;;;8.02;100.00
74708;BME280;63360;50.104;8.074;2022-11-12T14:34:30;98602.34;;;8.11;100.00
74708;BME280;63360;50.104;8.074;2022-11-12T14:36:57;98600.00;;;8.10;100.00
74708;BME280;63360;50.104;8.074;2022-11-12T14:39:25;98597.16;;;8.11;100.00
74708;BME280;63360;50.104;8.074;2022-11-12T14:41:53;98586.22;;;8.04;100.00
74708;BME280;63360;50.104;8.074;2022-11-12T14:44:32;98583.91;;;8.03;100.00
74708;BME280;63360;50.104;8.074;2022-11-12T14:47:00;98586.50;;;8.03;100.00
74708;BME280;63360;50.104;8.074;2022-11-12T14:49:33;98579.44;;;7.88;100.00
74708;BME280;63360;50.104;8.074;2022-11-12T14:52:09;98594.22;;;7.87;100.00
74708;BME280;63360;50.104;8.074;2022-11-12T14:54:43;98585.34;;;7.78;100.00
74708;BME280;63360;50.104;8.074;2022-11-12T14:57:26;98585.09;;;7.80;100.00
74708;BME280;63360;50.104;8.074;2022-11-12T14:59:55;98581.16;;;7.67;100.00